sensor_id;sensor_type;location;lat;lon;timestamp;P1;durP1;ratioP1;P2;durP2;ratioP2
47113;SDS011;32867;51.556;6.832;2024-03-06T00:03:08;14.90;;;10.13;;
47113;SDS011;32867;51.556;6.832;2024-03-06T00:08:09;12.50;;;9.32;;
47113;SDS011;32867;51.556;6.832;2024-03-06T00:13:09;12.85;;;9.25;;
47113;SDS011;32867;51.556;6.832;2024-03-06T00:18:10;15.05;;;10.85;;
47113;SDS011;32867;51.556;6.832;2024-03-06T00:23:11;13.73;;;10.48;;
47113;SDS011;32867;51.556;6.832;2024-03-06T00:28:11;14.25;;;10.20;;
47113;SDS011;32867;51.556;6.832;2024-03-06T00:33:12;13.80;;;10.50;;
47113;SDS011;32867;51.556;6.832;2024-03-06T00:38:13;13.32;;;9.50;;
47113;SDS011;32867;51.556;6.832;2024-03-06T00:43:14;13.10;;;10.05;;
47113;SDS011;32867;51.556;6.832;2024-03-06T00:48:14;13.35;;;9.85;;
47113;SDS011;32867;51.556;6.832;2024-03-06T00:53:16;14.05;;;10.10;;
47113;SDS011;32867;51.556;6.832;2024-03-06T00:58:16;13.07;;;9.45;;
47113;SDS011;32867;51.556;6.832;2024-03-06T01:03:17;12.88;;;9.18;;
47113;SDS011;32867;51.556;6.832;2024-03-06T01:08:17;13.25;;;9.18;;
47113;SDS011;32867;51.556;6.832;2024-03-06T01:13:19;13.20;;;9.75;;
47113;SDS011;32867;51.556;6.832;2024-03-06T01:18:20;15.02;;;10.30;;
47113;SDS011;32867;51.556;6.832;2024-03-06T01:23:20;15.30;;;10.35;;
47113;SDS011;32867;51.556;6.832;2024-03-06T01:28:21;12.63;;;9.32;;
47113;SDS011;32867;51.556;6.832;2024-03-06T01:33:22;12.68;;;8.98;;
47113;SDS011;32867;51.556;6.832;2024-03-06T01:38:22;15.45;;;11.32;;
47113;SDS011;32867;51.556;6.832;2024-03-06T01:43:24;13.35;;;10.60;;
47113;SDS011;32867;51.556;6.832;2024-03-06T01:48:26;16.25;;;11.45;;
47113;SDS011;32867;51.556;6.832;2024-03-06T01:53:28;14.85;;;10.35;;
47113;SDS011;32867;51.556;6.832;2024-03-06T01:58:30;14.18;;;10.85;;
47113;SDS011;32867;51.556;6.832;2024-03-06T02:03:33;14.43;;;10.63;;
47113;SDS011;32867;51.556;6.832;2024-03-06T02:08:34;16.42;;;10.07;;
47113;SDS011;32867;51.556;6.832;2024-03-06T02:13:35;13.80;;;9.88;;
47113;SDS011;32867;51.556;6.832;2024-03-06T02:18:36;14.93;;;9.68;;
47113;SDS011;32867;51.556;6.832;2024-03-06T02:23:37;16.83;;;10.75;;
47113;SDS011;32867;51.556;6.832;2024-03-06T02:28:38;18.38;;;12.00;;
47113;SDS011;32867;51.556;6.832;2024-03-06T02:33:38;17.70;;;11.30;;
47113;SDS011;32867;51.556;6.832;2024-03-06T02:38:40;16.75;;;11.65;;
47113;SDS011;32867;51.556;6.832;2024-03-06T02:43:41;17.17;;;11.18;;
47113;SDS011;32867;51.556;6.832;2024-03-06T02:48:42;18.33;;;12.57;;
47113;SDS011;32867;51.556;6.832;2024-03-06T02:53:43;17.90;;;12.38;;
47113;SDS011;32867;51.556;6.832;2024-03-06T02:58:44;18.45;;;12.43;;
47113;SDS011;32867;51.556;6.832;2024-03-06T03:03:45;17.42;;;11.73;;
47113;SDS011;32867;51.556;6.832;2024-03-06T03:08:47;15.00;;;10.68;;
47113;SDS011;32867;51.556;6.832;2024-03-06T03:13:48;19.58;;;12.43;;
47113;SDS011;32867;51.556;6.832;2024-03-06T03:18:48;19.33;;;13.00;;
47113;SDS011;32867;51.556;6.832;2024-03-06T03:23:49;19.65;;;12.23;;
47113;SDS011;32867;51.556;6.832;2024-03-06T03:28:49;20.30;;;13.98;;
47113;SDS011;32867;51.556;6.832;2024-03-06T03:33:50;23.00;;;15.07;;
47113;SDS011;32867;51.556;6.832;2024-03-06T03:38:51;24.63;;;14.82;;
47113;SDS011;32867;51.556;6.832;2024-03-06T03:43:51;22.70;;;14.55;;
47113;SDS011;32867;51.556;6.832;2024-03-06T03:48:52;21.60;;;14.18;;
47113;SDS011;32867;51.556;6.832;2024-03-06T03:53:53;21.77;;;14.18;;
47113;SDS011;32867;51.556;6.832;2024-03-06T03:58:53;21.23;;;14.27;;
47113;SDS011;32867;51.556;6.832;2024-03-06T04:03:54;17.30;;;12.35;;
47113;SDS011;32867;51.556;6.832;2024-03-06T04:08:55;19.58;;;13.20;;
47113;SDS011;32867;51.556;6.832;2024-03-06T04:13:56;18.00;;;12.02;;
47113;SDS011;32867;51.556;6.832;2024-03-06T04:18:56;18.50;;;12.35;;
47113;SDS011;32867;51.556;6.832;2024-03-06T04:23:57;19.58;;;13.75;;
47113;SDS011;32867;51.556;6.832;2024-03-06T04:28:58;21.75;;;14.77;;
47113;SDS011;32867;51.556;6.832;2024-03-06T04:33:59;20.60;;;13.88;;
47113;SDS011;32867;51.556;6.832;2024-03-06T04:38:59;20.58;;;13.23;;
47113;SDS011;32867;51.556;6.832;2024-03-06T04:44:00;17.55;;;12.40;;
47113;SDS011;32867;51.556;6.832;2024-03-06T04:49:01;22.45;;;13.38;;
47113;SDS011;32867;51.556;6.832;2024-03-06T04:54:02;20.50;;;13.90;;
47113;SDS011;32867;51.556;6.832;2024-03-06T04:59:03;23.40;;;14.50;;
47113;SDS011;32867;51.556;6.832;2024-03-06T05:04:04;21.90;;;14.45;;
47113;SDS011;32867;51.556;6.832;2024-03-06T05:09:05;20.80;;;13.80;;
47113;SDS011;32867;51.556;6.832;2024-03-06T05:14:06;21.95;;;14.65;;
47113;SDS011;32867;51.556;6.832;2024-03-06T05:19:07;19.48;;;12.85;;
47113;SDS011;32867;51.556;6.832;2024-03-06T05:24:08;22.10;;;13.73;;
47113;SDS011;32867;51.556;6.832;2024-03-06T05:29:09;19.98;;;13.55;;
47113;SDS011;32867;51.556;6.832;2024-03-06T05:34:10;19.73;;;12.73;;
47113;SDS011;32867;51.556;6.832;2024-03-06T05:39:11;19.35;;;13.35;;
47113;SDS011;32867;51.556;6.832;2024-03-06T05:44:12;17.33;;;13.02;;
47113;SDS011;32867;51.556;6.832;2024-03-06T05:49:13;17.50;;;12.27;;
47113;SDS011;32867;51.556;6.832;2024-03-06T05:54:14;16.95;;;12.40;;
47113;SDS011;32867;51.556;6.832;2024-03-06T05:59:14;16.35;;;11.38;;
47113;SDS011;32867;51.556;6.832;2024-03-06T06:04:15;16.65;;;11.23;;
47113;SDS011;32867;51.556;6.832;2024-03-06T06:09:16;18.55;;;12.25;;
47113;SDS011;32867;51.556;6.832;2024-03-06T06:14:17;17.88;;;12.25;;
47113;SDS011;32867;51.556;6.832;2024-03-06T06:19:18;16.90;;;12.25;;
47113;SDS011;32867;51.556;6.832;2024-03-06T06:24:18;16.67;;;11.52;;
47113;SDS011;32867;51.556;6.832;2024-03-06T06:29:19;17.50;;;12.20;;
47113;SDS011;32867;51.556;6.832;2024-03-06T06:34:20;19.33;;;12.93;;
47113;SDS011;32867;51.556;6.832;2024-03-06T06:39:20;18.55;;;12.55;;
47113;SDS011;32867;51.556;6.832;2024-03-06T06:44:21;18.70;;;12.60;;
47113;SDS011;32867;51.556;6.832;2024-03-06T06:49:21;21.42;;;13.73;;
47113;SDS011;32867;51.556;6.832;2024-03-06T06:54:22;19.92;;;13.73;;
47113;SDS011;32867;51.556;6.832;2024-03-06T06:59:23;21.42;;;14.02;;
47113;SDS011;32867;51.556;6.832;2024-03-06T07:04:23;18.75;;;13.02;;
47113;SDS011;32867;51.556;6.832;2024-03-06T07:09:24;19.30;;;12.73;;
47113;SDS011;32867;51.556;6.832;2024-03-06T07:14:29;20.90;;;13.23;;
47113;SDS011;32867;51.556;6.832;2024-03-06T07:19:29;19.83;;;13.70;;
47113;SDS011;32867;51.556;6.832;2024-03-06T07:24:30;19.75;;;13.43;;
47113;SDS011;32867;51.556;6.832;2024-03-06T07:29:30;26.75;;;16.70;;
47113;SDS011;32867;51.556;6.832;2024-03-06T07:34:31;33.63;;;20.23;;
47113;SDS011;32867;51.556;6.832;2024-03-06T07:39:32;46.58;;;26.98;;
47113;SDS011;32867;51.556;6.832;2024-03-06T07:44:34;56.75;;;28.02;;
47113;SDS011;32867;51.556;6.832;2024-03-06T07:49:36;66.32;;;28.35;;
47113;SDS011;32867;51.556;6.832;2024-03-06T07:54:36;83.93;;;29.48;;
47113;SDS011;32867;51.556;6.832;2024-03-06T07:59:39;63.15;;;28.23;;
47113;SDS011;32867;51.556;6.832;2024-03-06T08:04:40;99.88;;;28.55;;
47113;SDS011;32867;51.556;6.832;2024-03-06T08:09:41;50.95;;;25.63;;
47113;SDS011;32867;51.556;6.832;2024-03-06T08:14:43;65.47;;;28.85;;
47113;SDS011;32867;51.556;6.832;2024-03-06T08:19:43;51.03;;;29.10;;
47113;SDS011;32867;51.556;6.832;2024-03-06T08:24:44;52.92;;;26.75;;
47113;SDS011;32867;51.556;6.832;2024-03-06T08:29:45;52.63;;;29.85;;
47113;SDS011;32867;51.556;6.832;2024-03-06T08:34:45;63.30;;;28.98;;
47113;SDS011;32867;51.556;6.832;2024-03-06T08:39:46;56.20;;;30.52;;
47113;SDS011;32867;51.556;6.832;2024-03-06T08:44:48;61.53;;;31.73;;
47113;SDS011;32867;51.556;6.832;2024-03-06T08:49:49;57.70;;;32.25;;
47113;SDS011;32867;51.556;6.832;2024-03-06T08:54:50;63.28;;;34.05;;
47113;SDS011;32867;51.556;6.832;2024-03-06T08:59:50;60.88;;;34.67;;
47113;SDS011;32867;51.556;6.832;2024-03-06T09:04:51;76.95;;;38.75;;
47113;SDS011;32867;51.556;6.832;2024-03-06T09:09:52;63.13;;;35.92;;
47113;SDS011;32867;51.556;6.832;2024-03-06T09:14:53;70.68;;;37.97;;
47113;SDS011;32867;51.556;6.832;2024-03-06T09:19:54;68.65;;;37.78;;
47113;SDS011;32867;51.556;6.832;2024-03-06T09:24:55;71.38;;;38.45;;
47113;SDS011;32867;51.556;6.832;2024-03-06T09:29:56;84.10;;;42.30;;
47113;SDS011;32867;51.556;6.832;2024-03-06T09:34:57;70.38;;;38.10;;
47113;SDS011;32867;51.556;6.832;2024-03-06T09:39:58;78.90;;;40.33;;
47113;SDS011;32867;51.556;6.832;2024-03-06T09:44:59;58.47;;;35.03;;
47113;SDS011;32867;51.556;6.832;2024-03-06T09:50:01;66.72;;;37.72;;
47113;SDS011;32867;51.556;6.832;2024-03-06T09:55:03;77.43;;;41.53;;
47113;SDS011;32867;51.556;6.832;2024-03-06T10:00:05;69.25;;;38.80;;
47113;SDS011;32867;51.556;6.832;2024-03-06T10:05:21;66.22;;;37.30;;
47113;SDS011;32867;51.556;6.832;2024-03-06T10:10:23;59.28;;;34.22;;
47113;SDS011;32867;51.556;6.832;2024-03-06T10:15:23;58.67;;;34.20;;
47113;SDS011;32867;51.556;6.832;2024-03-06T10:20:26;60.17;;;34.35;;
47113;SDS011;32867;51.556;6.832;2024-03-06T10:25:28;62.67;;;37.47;;
47113;SDS011;32867;51.556;6.832;2024-03-06T10:30:29;54.13;;;33.30;;
47113;SDS011;32867;51.556;6.832;2024-03-06T10:35:30;53.42;;;32.92;;
47113;SDS011;32867;51.556;6.832;2024-03-06T10:40:32;59.70;;;35.92;;
47113;SDS011;32867;51.556;6.832;2024-03-06T10:45:50;48.55;;;31.52;;
47113;SDS011;32867;51.556;6.832;2024-03-06T10:50:56;48.40;;;30.63;;
47113;SDS011;32867;51.556;6.832;2024-03-06T10:55:59;59.45;;;36.45;;
47113;SDS011;32867;51.556;6.832;2024-03-06T11:01:02;60.85;;;35.67;;
47113;SDS011;32867;51.556;6.832;2024-03-06T11:06:03;55.55;;;35.08;;
47113;SDS011;32867;51.556;6.832;2024-03-06T11:11:20;57.03;;;34.75;;
47113;SDS011;32867;51.556;6.832;2024-03-06T11:16:28;53.38;;;34.60;;
47113;SDS011;32867;51.556;6.832;2024-03-06T11:21:30;54.03;;;34.05;;
47113;SDS011;32867;51.556;6.832;2024-03-06T11:26:31;53.75;;;32.78;;
47113;SDS011;32867;51.556;6.832;2024-03-06T11:31:35;44.40;;;28.55;;
47113;SDS011;32867;51.556;6.832;2024-03-06T11:36:36;43.70;;;28.70;;
47113;SDS011;32867;51.556;6.832;2024-03-06T11:46:56;43.10;;;28.52;;
47113;SDS011;32867;51.556;6.832;2024-03-06T11:51:59;39.03;;;26.17;;
47113;SDS011;32867;51.556;6.832;2024-03-06T11:57:05;33.45;;;23.17;;
47113;SDS011;32867;51.556;6.832;2024-03-06T12:02:06;35.40;;;24.63;;
47113;SDS011;32867;51.556;6.832;2024-03-06T12:07:07;36.20;;;26.08;;
47113;SDS011;32867;51.556;6.832;2024-03-06T12:12:09;32.53;;;23.10;;
47113;SDS011;32867;51.556;6.832;2024-03-06T12:17:13;25.35;;;17.95;;
47113;SDS011;32867;51.556;6.832;2024-03-06T12:22:14;26.92;;;18.55;;
47113;SDS011;32867;51.556;6.832;2024-03-06T12:27:15;23.17;;;16.63;;
47113;SDS011;32867;51.556;6.832;2024-03-06T12:32:22;23.42;;;16.13;;
47113;SDS011;32867;51.556;6.832;2024-03-06T12:37:29;24.85;;;17.23;;
47113;SDS011;32867;51.556;6.832;2024-03-06T12:42:31;18.10;;;12.82;;
47113;SDS011;32867;51.556;6.832;2024-03-06T12:47:32;19.17;;;13.95;;
47113;SDS011;32867;51.556;6.832;2024-03-06T12:52:39;16.67;;;11.60;;
47113;SDS011;32867;51.556;6.832;2024-03-06T12:57:40;13.13;;;10.10;;
47113;SDS011;32867;51.556;6.832;2024-03-06T13:02:42;19.15;;;13.57;;
47113;SDS011;32867;51.556;6.832;2024-03-06T13:07:44;16.55;;;11.77;;
47113;SDS011;32867;51.556;6.832;2024-03-06T13:12:44;16.75;;;10.85;;
47113;SDS011;32867;51.556;6.832;2024-03-06T13:17:45;17.75;;;12.00;;
47113;SDS011;32867;51.556;6.832;2024-03-06T13:22:45;16.23;;;11.23;;
47113;SDS011;32867;51.556;6.832;2024-03-06T13:27:46;14.57;;;10.20;;
47113;SDS011;32867;51.556;6.832;2024-03-06T13:32:47;15.15;;;11.05;;
47113;SDS011;32867;51.556;6.832;2024-03-06T13:37:48;15.68;;;10.88;;
47113;SDS011;32867;51.556;6.832;2024-03-06T13:42:49;13.00;;;9.10;;
47113;SDS011;32867;51.556;6.832;2024-03-06T13:47:50;13.50;;;9.27;;
47113;SDS011;32867;51.556;6.832;2024-03-06T13:52:51;15.48;;;9.88;;
47113;SDS011;32867;51.556;6.832;2024-03-06T13:57:51;12.05;;;8.02;;
47113;SDS011;32867;51.556;6.832;2024-03-06T14:02:52;13.88;;;8.63;;
47113;SDS011;32867;51.556;6.832;2024-03-06T14:07:53;14.13;;;8.60;;
47113;SDS011;32867;51.556;6.832;2024-03-06T14:12:55;14.23;;;9.63;;
47113;SDS011;32867;51.556;6.832;2024-03-06T14:17:57;12.40;;;9.52;;
47113;SDS011;32867;51.556;6.832;2024-03-06T14:22:57;20.52;;;14.38;;
47113;SDS011;32867;51.556;6.832;2024-03-06T14:27:58;20.67;;;14.23;;
47113;SDS011;32867;51.556;6.832;2024-03-06T14:32:58;20.40;;;14.70;;
47113;SDS011;32867;51.556;6.832;2024-03-06T14:37:59;15.32;;;11.02;;
47113;SDS011;32867;51.556;6.832;2024-03-06T14:43:00;15.70;;;10.90;;
47113;SDS011;32867;51.556;6.832;2024-03-06T14:48:02;20.17;;;12.48;;
47113;SDS011;32867;51.556;6.832;2024-03-06T14:53:02;16.52;;;12.60;;
47113;SDS011;32867;51.556;6.832;2024-03-06T14:58:03;17.33;;;12.60;;
47113;SDS011;32867;51.556;6.832;2024-03-06T15:03:04;21.08;;;15.60;;
47113;SDS011;32867;51.556;6.832;2024-03-06T15:08:04;21.45;;;17.25;;
47113;SDS011;32867;51.556;6.832;2024-03-06T15:13:05;27.58;;;20.75;;
47113;SDS011;32867;51.556;6.832;2024-03-06T15:18:06;24.05;;;18.95;;
47113;SDS011;32867;51.556;6.832;2024-03-06T15:23:07;29.52;;;22.60;;
47113;SDS011;32867;51.556;6.832;2024-03-06T15:28:07;26.25;;;19.35;;
47113;SDS011;32867;51.556;6.832;2024-03-06T15:33:09;23.15;;;17.50;;
47113;SDS011;32867;51.556;6.832;2024-03-06T15:38:09;23.02;;;17.98;;
47113;SDS011;32867;51.556;6.832;2024-03-06T15:43:10;25.00;;;18.95;;
47113;SDS011;32867;51.556;6.832;2024-03-06T15:48:11;24.00;;;18.92;;
47113;SDS011;32867;51.556;6.832;2024-03-06T15:53:13;23.75;;;18.23;;
47113;SDS011;32867;51.556;6.832;2024-03-06T15:58:14;22.45;;;17.08;;
47113;SDS011;32867;51.556;6.832;2024-03-06T16:03:14;23.40;;;17.90;;
47113;SDS011;32867;51.556;6.832;2024-03-06T16:08:15;22.65;;;17.02;;
47113;SDS011;32867;51.556;6.832;2024-03-06T16:13:16;22.30;;;17.98;;
47113;SDS011;32867;51.556;6.832;2024-03-06T16:18:16;20.63;;;16.60;;
47113;SDS011;32867;51.556;6.832;2024-03-06T16:23:17;22.52;;;17.40;;
47113;SDS011;32867;51.556;6.832;2024-03-06T16:28:18;22.20;;;17.15;;
47113;SDS011;32867;51.556;6.832;2024-03-06T16:33:19;20.17;;;16.35;;
47113;SDS011;32867;51.556;6.832;2024-03-06T16:38:20;21.83;;;16.02;;
47113;SDS011;32867;51.556;6.832;2024-03-06T16:43:21;18.08;;;13.95;;
47113;SDS011;32867;51.556;6.832;2024-03-06T16:48:21;19.27;;;15.27;;
47113;SDS011;32867;51.556;6.832;2024-03-06T16:53:23;18.88;;;14.57;;
47113;SDS011;32867;51.556;6.832;2024-03-06T16:58:24;20.65;;;16.05;;
47113;SDS011;32867;51.556;6.832;2024-03-06T17:03:24;23.70;;;17.63;;
47113;SDS011;32867;51.556;6.832;2024-03-06T17:08:25;22.85;;;16.55;;
47113;SDS011;32867;51.556;6.832;2024-03-06T17:13:26;23.48;;;17.20;;
47113;SDS011;32867;51.556;6.832;2024-03-06T17:18:26;26.88;;;17.67;;
47113;SDS011;32867;51.556;6.832;2024-03-06T17:23:27;27.98;;;18.70;;
47113;SDS011;32867;51.556;6.832;2024-03-06T17:28:28;26.63;;;18.33;;
47113;SDS011;32867;51.556;6.832;2024-03-06T17:33:30;24.98;;;17.52;;
47113;SDS011;32867;51.556;6.832;2024-03-06T17:38:30;22.17;;;16.52;;
47113;SDS011;32867;51.556;6.832;2024-03-06T17:43:31;23.98;;;16.77;;
47113;SDS011;32867;51.556;6.832;2024-03-06T17:48:32;21.45;;;15.10;;
47113;SDS011;32867;51.556;6.832;2024-03-06T17:53:33;27.58;;;18.60;;
47113;SDS011;32867;51.556;6.832;2024-03-06T17:58:33;23.88;;;16.30;;
47113;SDS011;32867;51.556;6.832;2024-03-06T18:03:34;28.55;;;19.73;;
47113;SDS011;32867;51.556;6.832;2024-03-06T18:08:35;25.48;;;17.25;;
47113;SDS011;32867;51.556;6.832;2024-03-06T18:13:36;31.35;;;21.00;;
47113;SDS011;32867;51.556;6.832;2024-03-06T18:18:37;28.88;;;18.58;;
47113;SDS011;32867;51.556;6.832;2024-03-06T18:23:38;26.60;;;17.92;;
47113;SDS011;32867;51.556;6.832;2024-03-06T18:28:39;25.65;;;18.33;;
47113;SDS011;32867;51.556;6.832;2024-03-06T18:33:39;28.27;;;18.67;;
47113;SDS011;32867;51.556;6.832;2024-03-06T18:38:40;26.05;;;18.30;;
47113;SDS011;32867;51.556;6.832;2024-03-06T18:43:44;30.77;;;18.95;;
47113;SDS011;32867;51.556;6.832;2024-03-06T18:48:45;31.48;;;20.25;;
47113;SDS011;32867;51.556;6.832;2024-03-06T18:53:45;26.55;;;17.73;;
47113;SDS011;32867;51.556;6.832;2024-03-06T18:58:46;27.75;;;18.48;;
47113;SDS011;32867;51.556;6.832;2024-03-06T19:03:46;28.35;;;18.15;;
47113;SDS011;32867;51.556;6.832;2024-03-06T19:08:47;29.55;;;19.45;;
47113;SDS011;32867;51.556;6.832;2024-03-06T19:13:48;33.05;;;21.60;;
47113;SDS011;32867;51.556;6.832;2024-03-06T19:18:50;35.35;;;21.60;;
47113;SDS011;32867;51.556;6.832;2024-03-06T19:23:50;35.03;;;21.63;;
47113;SDS011;32867;51.556;6.832;2024-03-06T19:28:51;35.20;;;21.00;;
47113;SDS011;32867;51.556;6.832;2024-03-06T19:33:53;34.38;;;21.65;;
47113;SDS011;32867;51.556;6.832;2024-03-06T19:38:53;33.03;;;21.02;;
47113;SDS011;32867;51.556;6.832;2024-03-06T19:43:54;34.80;;;21.63;;
47113;SDS011;32867;51.556;6.832;2024-03-06T19:48:55;32.78;;;20.13;;
47113;SDS011;32867;51.556;6.832;2024-03-06T19:53:55;38.97;;;23.42;;
47113;SDS011;32867;51.556;6.832;2024-03-06T19:58:56;30.38;;;19.50;;
47113;SDS011;32867;51.556;6.832;2024-03-06T20:03:58;33.50;;;21.63;;
47113;SDS011;32867;51.556;6.832;2024-03-06T20:08:59;35.13;;;22.65;;
47113;SDS011;32867;51.556;6.832;2024-03-06T20:14:01;30.98;;;20.25;;
47113;SDS011;32867;51.556;6.832;2024-03-06T20:19:02;37.10;;;22.38;;
47113;SDS011;32867;51.556;6.832;2024-03-06T20:24:03;34.95;;;21.63;;
47113;SDS011;32867;51.556;6.832;2024-03-06T20:29:04;35.40;;;21.88;;
47113;SDS011;32867;51.556;6.832;2024-03-06T20:34:04;40.42;;;24.05;;
47113;SDS011;32867;51.556;6.832;2024-03-06T20:39:06;39.88;;;23.70;;
47113;SDS011;32867;51.556;6.832;2024-03-06T20:44:11;35.05;;;22.15;;
47113;SDS011;32867;51.556;6.832;2024-03-06T20:49:11;37.30;;;23.15;;
47113;SDS011;32867;51.556;6.832;2024-03-06T20:54:14;36.50;;;22.73;;
47113;SDS011;32867;51.556;6.832;2024-03-06T20:59:15;37.13;;;22.95;;
47113;SDS011;32867;51.556;6.832;2024-03-06T21:04:15;43.20;;;25.73;;
47113;SDS011;32867;51.556;6.832;2024-03-06T21:09:16;36.45;;;22.75;;
47113;SDS011;32867;51.556;6.832;2024-03-06T21:14:16;41.45;;;24.70;;
47113;SDS011;32867;51.556;6.832;2024-03-06T21:19:17;38.20;;;23.55;;
47113;SDS011;32867;51.556;6.832;2024-03-06T21:24:18;40.00;;;23.73;;
47113;SDS011;32867;51.556;6.832;2024-03-06T21:29:20;46.45;;;26.30;;
47113;SDS011;32867;51.556;6.832;2024-03-06T21:34:21;39.20;;;24.52;;
47113;SDS011;32867;51.556;6.832;2024-03-06T21:39:21;36.50;;;21.88;;
47113;SDS011;32867;51.556;6.832;2024-03-06T21:44:22;40.05;;;23.67;;
47113;SDS011;32867;51.556;6.832;2024-03-06T21:49:23;43.10;;;24.33;;
47113;SDS011;32867;51.556;6.832;2024-03-06T21:54:24;45.83;;;26.33;;
47113;SDS011;32867;51.556;6.832;2024-03-06T21:59:24;49.20;;;26.02;;
47113;SDS011;32867;51.556;6.832;2024-03-06T22:04:25;41.35;;;25.25;;
47113;SDS011;32867;51.556;6.832;2024-03-06T22:09:25;42.28;;;24.92;;
47113;SDS011;32867;51.556;6.832;2024-03-06T22:14:26;41.10;;;24.65;;
47113;SDS011;32867;51.556;6.832;2024-03-06T22:19:27;42.08;;;25.50;;
47113;SDS011;32867;51.556;6.832;2024-03-06T22:24:28;44.13;;;25.75;;
47113;SDS011;32867;51.556;6.832;2024-03-06T22:29:29;40.50;;;24.58;;
47113;SDS011;32867;51.556;6.832;2024-03-06T22:34:30;39.45;;;22.33;;
47113;SDS011;32867;51.556;6.832;2024-03-06T22:39:30;45.85;;;25.85;;
47113;SDS011;32867;51.556;6.832;2024-03-06T22:44:31;39.83;;;23.80;;
47113;SDS011;32867;51.556;6.832;2024-03-06T22:49:32;43.70;;;23.80;;
47113;SDS011;32867;51.556;6.832;2024-03-06T22:54:32;37.47;;;22.90;;
47113;SDS011;32867;51.556;6.832;2024-03-06T22:59:33;36.47;;;20.67;;
47113;SDS011;32867;51.556;6.832;2024-03-06T23:04:33;39.67;;;23.92;;
47113;SDS011;32867;51.556;6.832;2024-03-06T23:09:34;38.65;;;22.83;;
47113;SDS011;32867;51.556;6.832;2024-03-06T23:14:35;42.25;;;24.38;;
47113;SDS011;32867;51.556;6.832;2024-03-06T23:19:37;37.35;;;23.30;;
47113;SDS011;32867;51.556;6.832;2024-03-06T23:24:38;40.85;;;24.25;;
47113;SDS011;32867;51.556;6.832;2024-03-06T23:29:38;42.80;;;24.85;;
47113;SDS011;32867;51.556;6.832;2024-03-06T23:34:39;42.70;;;25.98;;
47113;SDS011;32867;51.556;6.832;2024-03-06T23:39:39;45.13;;;27.38;;
47113;SDS011;32867;51.556;6.832;2024-03-06T23:44:40;44.60;;;27.13;;
47113;SDS011;32867;51.556;6.832;2024-03-06T23:49:41;39.85;;;24.00;;
47113;SDS011;32867;51.556;6.832;2024-03-06T23:54:41;46.22;;;26.60;;
47113;SDS011;32867;51.556;6.832;2024-03-06T23:59:42;40.88;;;25.65;;
